Time;durP1;ratioP1;P1;durP2;ratioP2;P2;SDS_P1;SDS_P2;PMS_P1;PMS_P2;Temp;Humidity;BMP_temperature;BMP_pressure;BME280_temperature;BME280_humidity;BME280_pressure;Samples;Min_cycle;Max_cycle;Signal;HPM_P1;HPM_P2
2022/04/17 00:00:36;;;;;;;6.68;3.08;;;;;;;;;;4992954;28;20526;-42
2022/04/17 00:03:05;;;;;;;6.50;2.80;;;4.40;99.90;;;;;;4992547;28;20535;-42
2022/04/17 00:05:31;;;;;;;5.18;2.85;;;;;;;;;;4992447;28;20120;-44
2022/04/17 00:07:57;;;;;;;5.80;2.85;;;;;;;;;;4992006;28;20511;-45
2022/04/17 00:10:23;;;;;;;6.90;3.10;;;;;;;;;;4993809;28;20041;-45
2022/04/17 00:12:49;;;;;;;5.32;2.85;;;;;;;;;;4992447;28;20034;-42
2022/04/17 00:15:15;;;;;;;5.70;3.08;;;;;;;;;;4992591;28;20121;-42
2022/04/17 00:17:43;;;;;;;7.00;3.05;;;5.00;99.90;;;;;;4992674;28;20132;-44
2022/04/17 00:20:11;;;;;;;8.20;2.92;;;5.20;99.90;;;;;;4993266;28;20422;-42
2022/04/17 00:22:37;;;;;;;5.70;3.40;;;;;;;;;;4975013;28;20120;-45
2022/04/17 00:25:07;;;;;;;6.63;3.38;;;5.10;99.90;;;;;;4990730;28;20072;-46
2022/04/17 00:27:33;;;;;;;6.35;3.25;;;4.70;99.90;;;;;;4993466;28;20185;-42
2022/04/17 00:29:59;;;;;;;5.97;2.92;;;;;;;;;;4992585;28;20038;-44
2022/04/17 00:32:25;;;;;;;6.78;3.25;;;;;;;;;;4993385;28;20042;-46
2022/04/17 00:34:51;;;;;;;6.15;3.50;;;;;;;;;;4993373;28;20048;-43
2022/04/17 00:37:17;;;;;;;6.57;3.05;;;;;;;;;;4992627;28;20429;-43
2022/04/17 00:39:45;;;;;;;6.82;3.72;;;4.70;99.90;;;;;;4993198;28;20034;-41
2022/04/17 00:42:11;;;;;;;8.38;3.80;;;;;;;;;;4992849;28;20096;-42
2022/04/17 00:44:37;;;;;;;8.40;3.47;;;;;;;;;;4992107;28;20049;-42
2022/04/17 00:47:04;;;;;;;6.32;3.33;;;4.70;99.90;;;;;;4991815;28;20620;-45
2022/04/17 00:49:30;;;;;;;7.20;3.60;;;;;;;;;;4992969;28;20598;-45
2022/04/17 00:51:56;;;;;;;9.13;3.88;;;;;;;;;;4992159;28;20042;-42
2022/04/17 00:54:24;;;;;;;6.55;3.65;;;4.60;99.90;;;;;;4991627;28;20073;-43
2022/04/17 00:56:51;;;;;;;8.68;4.10;;;;;;;;;;4993602;28;20050;-46
2022/04/17 00:59:17;;;;;;;6.50;3.38;;;;;;;;;;4994115;28;20060;-44
2022/04/17 01:01:45;;;;;;;7.47;3.90;;;4.30;99.90;;;;;;4992680;28;20580;-41
2022/04/17 01:04:12;;;;;;;6.20;3.78;;;;;;;;;;4991952;28;20073;-42
2022/04/17 01:06:41;;;;;;;6.18;3.30;;;3.90;99.90;;;;;;4992705;28;20046;-45
2022/04/17 01:09:07;;;;;;;8.85;3.70;;;;;;;;;;4993352;28;20129;-44
2022/04/17 01:11:33;;;;;;;6.35;3.70;;;;;;;;;;4993511;28;20136;-45
2022/04/17 01:14:00;;;;;;;6.05;3.70;;;;;;;;;;4993810;28;20100;-44
2022/04/17 01:16:26;;;;;;;5.55;3.38;;;3.50;99.90;;;;;;4996060;28;20446;-44
2022/04/17 01:19:11;;;;;;;8.52;3.60;;;3.60;99.90;;;;;;4996080;28;20095;-42
2022/04/17 01:21:38;;;;;;;9.23;4.45;;;3.30;99.90;;;;;;4996158;28;20379;-42
2022/04/17 01:26:57;;;;;;;6.60;4.18;;;3.30;99.90;;;;;;4996546;28;20667;-43
2022/04/17 01:29:34;;;;;;;7.70;4.20;;;3.20;99.90;;;;;;4996913;28;20050;-45
2022/04/17 01:32:03;;;;;;;8.65;4.80;;;3.20;99.90;;;;;;4994719;28;20041;-45
2022/04/17 01:34:29;;;;;;;10.20;4.30;;;;;;;;;;4995966;28;20089;-43
2022/04/17 01:36:55;;;;;;;8.50;4.25;;;;;;;;;;4995671;28;20042;-45
2022/04/17 01:39:22;;;;;;;6.28;4.03;;;;;;;;;;4996760;28;20513;-40
2022/04/17 01:41:51;;;;;;;8.27;4.07;;;3.20;99.90;;;;;;4994735;28;20053;-43
2022/04/17 01:44:20;;;;;;;8.85;4.65;;;1.70;99.90;;;;;;4993247;28;20038;-42
2022/04/17 01:46:46;;;;;;;7.40;4.20;;;3.30;99.90;;;;;;4994829;28;20139;-40
2022/04/17 01:49:15;;;;;;;6.97;4.05;;;3.10;99.90;;;;;;4996096;28;20125;-40
2022/04/17 01:51:41;;;;;;;8.20;5.15;;;3.20;99.90;;;;;;4995720;28;20029;-42
2022/04/17 01:54:09;;;;;;;7.68;4.13;;;3.10;99.90;;;;;;4994719;28;20042;-42
2022/04/17 01:56:36;;;;;;;8.80;4.65;;;3.20;99.90;;;;;;4994107;28;20037;-42
2022/04/17 01:59:04;;;;;;;7.93;4.38;;;3.10;99.90;;;;;;4994342;28;20052;-41
2022/04/17 02:01:30;;;;;;;9.02;4.22;;;;;;;;;;4994860;28;20161;-42
2022/04/17 02:03:57;;;;;;;8.85;4.18;;;;;;;;;;4995302;28;20056;-42
2022/04/17 02:06:26;;;;;;;8.02;4.38;;;3.10;99.90;;;;;;4977938;28;20132;-44
2022/04/17 02:08:52;;;;;;;8.38;4.65;;;;;;;;;;4994925;28;20545;-41
2022/04/17 02:11:18;;;;;;;7.25;4.05;;;2.90;99.90;;;;;;4995030;28;20046;-42
2022/04/17 02:13:45;;;;;;;8.60;4.30;;;;;;;;;;4976534;28;20569;-42
2022/04/17 02:16:12;;;;;;;8.50;4.80;;;;;;;;;;4996048;28;20046;-42
2022/04/17 02:18:38;;;;;;;11.00;4.65;;;;;;;;;;4993809;28;20053;-42
2022/04/17 02:21:06;;;;;;;7.20;4.60;;;3.00;99.90;;;;;;4993565;28;20061;-42
2022/04/17 02:23:32;;;;;;;9.15;4.43;;;;;;;;;;4995247;28;20093;-43
2022/04/17 02:25:58;;;;;;;7.53;4.68;;;;;;;;;;4994334;28;20465;-42
2022/04/17 02:28:25;;;;;;;6.55;4.40;;;;;;;;;;4994306;28;20487;-41
2022/04/17 02:30:51;;;;;;;9.82;4.53;;;;;;;;;;4994881;28;20093;-44
2022/04/17 02:33:17;;;;;;;8.10;4.93;;;;;;;;;;4994704;28;20048;-44
2022/04/17 02:35:43;;;;;;;8.43;4.75;;;;;;;;;;4992926;28;20045;-42
2022/04/17 02:38:09;;;;;;;11.30;4.65;;;;;;;;;;4993145;28;20411;-41
2022/04/17 02:40:35;;;;;;;9.35;4.85;;;;;;;;;;4995399;28;20038;-42
2022/04/17 02:43:01;;;;;;;6.70;4.78;;;;;;;;;;4994982;28;20141;-41
2022/04/17 02:45:27;;;;;;;7.93;5.28;;;;;;;;;;4994487;28;20414;-42
2022/04/17 02:47:53;;;;;;;10.13;5.30;;;;;;;;;;4993946;28;20499;-45
2022/04/17 02:50:20;;;;;;;9.15;4.70;;;2.60;99.90;;;;;;4995716;28;20065;-44
2022/04/17 02:52:46;;;;;;;10.13;4.43;;;2.50;99.90;;;;;;4994239;28;20672;-41
2022/04/17 02:55:13;;;;;;;7.75;4.57;;;;;;;;;;4993768;28;20104;-41
2022/04/17 02:57:39;;;;;;;9.45;5.30;;;;;;;;;;4977088;28;20132;-40
2022/04/17 03:00:07;;;;;;;9.18;4.72;;;2.40;99.90;;;;;;4994732;28;20038;-41
2022/04/17 03:08:00;;;;;;;9.93;5.32;;;;;;;;;;4995143;28;20442;-45
2022/04/17 03:10:26;;;;;;;8.93;5.88;;;;;;;;;;4994034;28;20581;-40
2022/04/17 03:12:54;;;;;;;8.45;5.43;;;2.20;99.90;;;;;;4993010;28;20069;-44
2022/04/17 03:15:20;;;;;;;8.95;4.95;;;;;;;;;;4991683;28;20506;-42
2022/04/17 03:17:46;;;;;;;9.18;5.57;;;;;;;;;;4993517;28;20041;-41
2022/04/17 03:20:12;;;;;;;9.20;5.25;;;;;;;;;;4992990;28;20053;-42
2022/04/17 03:22:42;;;;;;;10.70;5.97;;;2.20;99.90;;;;;;4991738;28;20046;-41
2022/04/17 03:25:10;;;;;;;8.85;5.95;;;2.10;99.90;;;;;;4993762;28;20077;-45
2022/04/17 03:27:36;;;;;;;9.40;5.47;;;;;;;;;;4993989;28;20483;-45
2022/04/17 03:30:05;;;;;;;12.13;6.72;;;4.00;99.90;;;;;;4993364;28;20590;-42
2022/04/17 03:32:33;;;;;;;8.77;5.45;;;;;;;;;;4992525;28;20066;-41
2022/04/17 03:34:59;;;;;;;8.10;5.05;;;;;;;;;;4992621;28;20046;-45
2022/04/17 03:37:25;;;;;;;9.52;5.43;;;;;;;;;;4994179;28;20045;-43
2022/04/17 03:39:52;;;;;;;10.82;6.32;;;;;;;;;;4992762;28;20065;-41
2022/04/17 03:42:21;;;;;;;12.82;5.68;;;;;;;;;;4992638;28;20115;-44
2022/04/17 03:44:47;;;;;;;13.20;5.78;;;;;;;;;;4975108;28;20578;-43
2022/04/17 03:47:15;;;;;;;9.05;6.05;;;2.20;99.90;;;;;;4994272;28;20493;-41
2022/04/17 03:49:43;;;;;;;9.30;5.40;;;;;;;;;;4975250;28;20160;-43
2022/04/17 03:52:09;;;;;;;12.10;6.45;;;;;;;;;;4991875;28;20060;-42
2022/04/17 03:54:37;;;;;;;7.70;5.40;;;2.00;99.90;;;;;;4993515;28;20057;-43
2022/04/17 03:57:03;;;;;;;9.65;5.75;;;;;;;;;;4993647;28;20042;-41
2022/04/17 03:59:31;;;;;;;10.77;5.97;;;;;;;;;;4993738;28;20040;-45
2022/04/17 04:01:58;;;;;;;10.27;6.20;;;;;;;;;;4992317;28;20056;-44
2022/04/17 04:04:24;;;;;;;8.18;5.18;;;;;;;;;;4991889;28;20092;-42
2022/04/17 04:06:51;;;;;;;10.20;6.22;;;;;;;;;;4994330;28;20315;-44
2022/04/17 04:09:18;;;;;;;9.73;6.50;;;1.80;99.90;;;;;;4993145;28;20403;-43
2022/04/17 04:11:45;;;;;;;10.48;5.88;;;;;;;;;;4992827;28;20457;-41
2022/04/17 04:14:11;;;;;;;8.65;5.85;;;;;;;;;;4992583;28;20044;-42
2022/04/17 04:16:39;;;;;;;12.27;6.50;;;;;;;;;;4993510;28;20089;-44
2022/04/17 04:19:05;;;;;;;10.77;6.70;;;;;;;;;;4992518;28;20362;-40
2022/04/17 04:21:31;;;;;;;9.85;5.60;;;;;;;;;;4992650;28;20092;-45
2022/04/17 04:23:57;;;;;;;9.27;6.05;;;;;;;;;;4992628;28;20081;-40
2022/04/17 04:26:24;;;;;;;10.40;6.43;;;;;;;;;;4975504;28;20750;-42
2022/04/17 04:28:50;;;;;;;7.93;5.63;;;;;;;;;;4994537;28;20129;-41
2022/04/17 04:31:16;;;;;;;8.65;5.57;;;;;;;;;;4991572;28;20042;-41
2022/04/17 04:33:42;;;;;;;9.13;5.78;;;1.90;99.90;;;;;;4991237;28;20046;-41
2022/04/17 04:36:12;;;;;;;10.32;6.25;;;;;;;;;;4992586;28;20064;-42
2022/04/17 04:38:39;;;;;;;10.57;6.13;;;;;;;;;;4992911;28;20042;-43
2022/04/17 04:41:06;;;;;;;12.50;6.80;;;1.90;99.90;;;;;;4989608;28;20045;-40
2022/04/17 04:43:33;;;;;;;10.90;6.03;;;;;;;;;;4991588;28;20042;-45
2022/04/17 04:46:08;;;;;;;11.23;6.13;;;;;;;;;;4992032;28;20046;-44
2022/04/17 04:51:21;;;;;;;9.77;6.30;;;;;;;;;;4995818;28;20056;-41
2022/04/17 04:53:47;;;;;;;10.23;5.72;;;;;;;;;;4995486;28;20518;-42
2022/04/17 04:56:13;;;;;;;11.93;6.72;;;;;;;;;;4995538;28;20037;-44
2022/04/17 04:58:40;;;;;;;10.57;6.60;;;;;;;;;;4996975;28;20056;-43
2022/04/17 05:01:08;;;;;;;9.20;6.55;;;2.50;99.90;;;;;;4995233;28;20049;-46
2022/04/17 05:03:34;;;;;;;11.95;6.78;;;;;;;;;;4996878;28;20042;-43
2022/04/17 05:06:00;;;;;;;10.60;6.97;;;;;;;;;;4996451;28;20038;-46
2022/04/17 05:08:29;;;;;;;9.80;6.82;;;2.90;99.90;;;;;;4978208;28;20934;-41
2022/04/17 05:10:55;;;;;;;10.10;6.63;;;;;;;;;;4996284;28;20049;-42
2022/04/17 05:13:21;;;;;;;10.25;6.28;;;;;;;;;;4996060;28;20038;-43
2022/04/17 05:15:47;;;;;;;11.48;6.53;;;;;;;;;;4978276;28;20413;-44
2022/04/17 05:18:13;;;;;;;10.45;6.85;;;;;;;;;;4994642;28;20529;-45
2022/04/17 05:20:39;;;;;;;12.13;6.82;;;;;;;;;;4995290;28;20046;-45
2022/04/17 05:23:17;;;;;;;11.77;6.43;;;3.40;99.90;;;;;;4994671;28;20095;-44
2022/04/17 05:25:43;;;;;;;11.75;6.82;;;;;;;;;;4996230;28;20526;-46
2022/04/17 05:28:09;;;;;;;10.57;6.90;;;;;;;;;;4995737;28;20498;-46
2022/04/17 05:30:35;;;;;;;12.25;7.47;;;;;;;;;;4995014;28;20033;-46
2022/04/17 05:33:02;;;;;;;12.57;6.88;;;;;;;;;;4996058;28;20069;-47
2022/04/17 05:35:28;;;;;;;11.75;6.43;;;;;;;;;;4994574;28;20125;-45
2022/04/17 05:37:54;;;;;;;11.05;6.97;;;;;;;;;;4995597;28;20430;-44
2022/04/17 05:40:19;;;;;;;10.05;6.70;;;5.20;99.90;;;;;;4978299;28;20491;-47
2022/04/17 05:42:45;;;;;;;14.40;6.97;;;5.80;99.90;;;;;;4996685;28;20054;-47
2022/04/17 05:45:11;;;;;;;13.32;6.65;;;6.60;99.90;;;;;;4994420;28;20153;-47
2022/04/17 05:47:37;;;;;;;10.45;6.60;;;4.90;99.90;;;;;;4995721;28;20414;-46
2022/04/17 05:50:03;;;;;;;10.30;6.82;;;6.70;99.90;;;;;;4994446;28;20400;-46
2022/04/17 05:52:31;;;;;;;12.00;6.50;;;8.40;99.90;;;;;;4993546;28;20210;-45
2022/04/17 05:55:00;;;;;;;11.00;6.53;;;9.30;99.90;;;;;;4994259;28;20042;-43
2022/04/17 05:57:25;;;;;;;10.07;6.50;;;10.40;99.90;;;;;;4994856;28;20691;-45
2022/04/17 05:59:54;;;;;;;10.90;7.22;;;11.90;99.90;;;;;;4994730;28;20123;-48
2022/04/17 06:02:19;;;;;;;11.13;6.95;;;12.70;99.90;;;;;;4994790;28;20161;-46
2022/04/17 06:04:47;;;;;;;9.88;6.20;;;12.00;99.90;;;;;;4993563;28;20066;-46
2022/04/17 06:07:13;;;;;;;9.60;6.55;;;12.30;99.90;;;;;;4976392;28;20518;-47
2022/04/17 06:09:39;;;;;;;12.00;6.25;;;12.20;99.90;;;;;;4994638;28;20046;-45
2022/04/17 06:12:05;;;;;;;9.68;6.32;;;13.60;99.90;;;;;;4993603;28;20053;-45
2022/04/17 06:14:31;;;;;;;9.77;6.18;;;13.50;99.90;;;;;;4993911;28;20659;-45
2022/04/17 06:16:56;;;;;;;9.63;6.18;;;15.80;99.90;;;;;;4994565;28;20056;-44
2022/04/17 06:19:22;;;;;;;9.30;6.47;;;15.10;99.90;;;;;;4994261;28;20053;-48
2022/04/17 06:21:48;;;;;;;11.10;6.55;;;16.10;99.90;;;;;;4994790;28;20053;-47
2022/04/17 06:24:15;;;;;;;9.32;6.18;;;16.00;99.90;;;;;;4994698;28;20390;-47
2022/04/17 06:26:42;;;;;;;9.00;6.20;;;16.60;99.90;;;;;;4994467;28;20125;-47
2022/04/17 06:29:08;;;;;;;8.60;5.85;;;16.70;99.90;;;;;;4994509;28;20057;-46
2022/04/17 06:31:34;;;;;;;9.10;6.43;;;17.10;98.50;;;;;;4993446;28;20049;-44
2022/04/17 06:34:01;;;;;;;9.50;5.90;;;18.60;97.10;;;;;;4994086;28;20050;-44
2022/04/17 06:36:26;;;;;;;8.73;5.82;;;17.80;96.20;;;;;;4995964;28;20046;-45
2022/04/17 06:38:52;;;;;;;821.95;686.80;;;18.00;95.90;;;;;;4994162;28;20045;-45
2022/04/17 06:41:18;;;;;;;571.88;528.80;;;18.40;95.90;;;;;;4994329;28;20406;-47
2022/04/17 06:43:43;;;;;;;437.23;406.20;;;18.10;95.40;;;;;;4994982;28;20037;-46
2022/04/17 06:46:09;;;;;;;553.45;492.10;;;18.90;94.80;;;;;;4995161;28;20049;-46
2022/04/17 06:48:35;;;;;;;8.52;6.18;;;18.80;93.60;;;;;;4994896;28;20048;-45
2022/04/17 06:51:00;;;;;;;11.25;6.18;;;18.80;93.30;;;;;;4995201;28;20037;-47
2022/04/17 06:53:30;;;;;;;9.73;6.00;;;19.10;92.00;;;;;;4994550;28;20648;-49
2022/04/17 06:55:55;;;;;;;9.02;6.00;;;19.20;92.00;;;;;;4994555;28;20075;-47
2022/04/17 06:58:21;;;;;;;9.13;6.05;;;19.20;91.10;;;;;;4995045;28;20484;-47
2022/04/17 07:00:48;;;;;;;8.00;5.63;;;20.80;91.40;;;;;;4993682;28;20312;-46
2022/04/17 07:03:14;;;;;;;8.43;5.85;;;19.70;90.70;;;;;;4994872;28;20438;-48
2022/04/17 07:05:41;;;;;;;9.30;5.72;;;19.80;90.30;;;;;;4993614;28;20041;-47
2022/04/17 07:08:07;;;;;;;9.60;6.15;;;20.10;88.70;;;;;;4992806;28;20038;-46
2022/04/17 07:10:37;;;;;;;9.20;5.95;;;21.80;90.50;;;;;;4992306;28;20846;-48
2022/04/17 07:13:04;;;;;;;9.35;6.28;;;20.10;89.30;;;;;;4992964;28;20081;-49
2022/04/17 07:15:30;;;;;;;7.32;5.10;;;20.80;86.40;;;;;;4993548;28;20048;-48
2022/04/17 07:17:56;;;;;;;8.90;5.53;;;20.70;86.80;;;;;;4976439;28;20422;-47
2022/04/17 07:20:23;;;;;;;7.85;5.63;;;20.90;84.20;;;;;;4992965;28;20045;-45
2022/04/17 07:22:49;;;;;;;8.13;5.30;;;22.30;85.30;;;;;;4976406;28;20041;-48
2022/04/17 07:25:15;;;;;;;9.35;6.05;;;21.60;86.30;;;;;;4992440;28;20104;-48
2022/04/17 07:27:46;;;;;;;8.80;5.70;;;19.40;85.90;;;;;;4992392;28;20065;-48
2022/04/17 07:30:14;;;;;;;8.73;6.10;;;19.10;85.70;;;;;;4994044;28;20038;-47
2022/04/17 07:32:46;;;;;;;8.20;5.53;;;17.90;87.30;;;;;;4992381;28;20075;-45
2022/04/17 07:35:14;;;;;;;8.85;5.72;;;17.70;89.10;;;;;;4993897;28;20596;-48
2022/04/17 07:37:40;;;;;;;9.52;6.15;;;16.60;90.50;;;;;;4993413;28;20050;-45
2022/04/17 07:40:15;;;;;;;7.68;5.28;;;16.40;91.20;;;;;;4993490;28;20052;-48
2022/04/17 07:42:43;;;;;;;7.85;5.43;;;16.20;90.80;;;;;;4993379;28;20121;-46
2022/04/17 07:45:09;;;;;;;8.70;6.10;;;16.50;91.40;;;;;;4993618;28;20557;-48
2022/04/17 07:47:35;;;;;;;8.32;5.68;;;16.20;90.50;;;;;;4992470;28;20502;-46
2022/04/17 07:50:05;;;;;;;7.97;5.43;;;16.00;90.80;;;;;;4994156;28;20159;-48
2022/04/17 07:52:31;;;;;;;11.75;5.72;;;15.40;91.60;;;;;;4993235;28;20033;-45
2022/04/17 07:54:56;;;;;;;9.48;5.38;;;15.70;91.50;;;;;;4992677;28;20450;-46
2022/04/17 07:57:25;;;;;;;8.27;5.55;;;16.00;91.90;;;;;;4993117;28;20050;-46
2022/04/17 07:59:55;;;;;;;8.95;5.72;;;17.70;91.50;;;;;;4994035;28;20049;-47
2022/04/17 08:02:28;;;;;;;9.10;5.82;;;16.50;91.40;;;;;;4975766;28;20046;-48
2022/04/17 08:04:54;;;;;;;10.05;6.05;;;16.50;90.90;;;;;;4994381;28;20125;-48
2022/04/17 08:07:23;;;;;;;9.48;5.20;;;16.10;91.00;;;;;;4993248;28;20050;-48
2022/04/17 08:09:50;;;;;;;8.50;5.70;;;15.50;91.60;;;;;;4992734;28;20038;-47
2022/04/17 08:12:16;;;;;;;9.15;5.68;;;15.50;92.70;;;;;;4974308;28;20045;-46
2022/04/17 08:14:41;;;;;;;9.32;5.32;;;14.40;91.90;;;;;;4991594;28;20731;-44
2022/04/17 08:17:07;;;;;;;9.10;5.65;;;15.90;91.20;;;;;;4991484;28;20100;-46
2022/04/17 08:19:33;;;;;;;9.65;5.72;;;16.20;91.70;;;;;;4992005;28;20073;-47
2022/04/17 08:22:00;;;;;;;9.07;5.35;;;15.00;92.00;;;;;;4973836;28;20037;-47
2022/04/17 08:24:26;;;;;;;8.52;5.30;;;14.90;93.40;;;;;;4974866;28;20525;-47
2022/04/17 08:26:53;;;;;;;9.02;5.50;;;16.70;92.10;;;;;;4991317;28;20034;-45
2022/04/17 08:29:19;;;;;;;9.68;5.50;;;17.80;91.50;;;;;;4973833;28;20097;-45
2022/04/17 08:31:45;;;;;;;7.88;4.93;;;17.00;90.60;;;;;;4990555;28;20116;-49
2022/04/17 08:34:11;;;;;;;9.30;5.40;;;16.70;89.90;;;;;;4990974;28;20103;-44
2022/04/17 08:36:36;;;;;;;9.90;5.25;;;17.10;90.60;;;;;;4991228;28;20457;-48
2022/04/17 08:39:02;;;;;;;8.80;5.70;;;16.10;90.60;;;;;;4993172;28;20052;-47
2022/04/17 08:41:32;;;;;;;8.93;5.00;;;15.80;90.90;;;;;;4991693;28;20072;-44
2022/04/17 08:43:57;;;;;;;9.93;5.20;;;15.80;91.10;;;;;;4992083;28;20053;-45
2022/04/17 08:46:23;;;;;;;10.00;5.32;;;16.50;91.00;;;;;;4990521;28;20416;-44
2022/04/17 08:48:51;;;;;;;8.32;5.40;;;15.80;90.50;;;;;;4993000;28;20117;-48
2022/04/17 08:51:17;;;;;;;8.07;5.35;;;16.20;91.40;;;;;;4991984;28;20498;-46
2022/04/17 08:53:44;;;;;;;9.27;5.28;;;15.40;91.10;;;;;;4990009;28;20049;-44
2022/04/17 08:56:09;;;;;;;8.27;5.40;;;15.30;91.70;;;;;;4990948;28;20777;-44
2022/04/17 08:58:37;;;;;;;10.85;5.68;;;15.30;91.80;;;;;;4993144;28;20149;-44
2022/04/17 09:01:02;;;;;;;9.98;5.43;;;15.50;91.90;;;;;;4988542;28;20049;-46
2022/04/17 09:03:29;;;;;;;8.68;5.25;;;16.00;91.40;;;;;;4990717;28;20037;-45
2022/04/17 09:05:56;;;;;;;7.13;4.63;;;16.40;92.00;;;;;;4992253;28;20081;-43
2022/04/17 09:08:21;;;;;;;7.75;4.05;;;16.00;92.80;;;;;;4991041;28;20078;-44
2022/04/17 09:10:59;;;;;;;7.53;4.25;;;16.00;91.90;;;;;;4991412;28;20137;-44
2022/04/17 09:13:30;;;;;;;6.90;4.57;;;16.40;92.20;;;;;;4989774;28;20045;-46
2022/04/17 09:15:56;;;;;;;10.55;4.50;;;16.40;91.80;;;;;;4991451;28;20049;-47
2022/04/17 09:18:26;;;;;;;8.35;4.38;;;16.40;91.70;;;;;;4991572;28;20040;-46
2022/04/17 09:20:52;;;;;;;8.85;4.70;;;17.00;91.80;;;;;;4992496;28;20100;-52
2022/04/17 09:23:38;;;;;;;6.85;4.75;;;17.50;91.10;;;;;;4990354;28;20038;-47
2022/04/17 09:26:05;;;;;;;7.75;3.92;;;18.10;89.20;;;;;;4992838;28;20057;-46
2022/04/17 09:28:38;;;;;;;6.95;4.28;;;18.40;90.10;;;;;;4992737;28;20069;-48
2022/04/17 09:31:13;;;;;;;8.48;4.40;;;19.00;90.30;;;;;;4993111;28;20042;-44
2022/04/17 09:33:49;;;;;;;8.10;4.32;;;19.60;89.60;;;;;;4992384;28;20041;-47
2022/04/17 09:36:15;;;;;;;7.53;4.72;;;18.80;90.30;;;;;;4995429;28;20045;-43
2022/04/17 09:38:42;;;;;;;7.90;4.70;;;19.20;89.90;;;;;;4995800;28;20045;-46
2022/04/17 09:41:13;;;;;;;9.20;4.97;;;17.70;88.70;;;;;;4994621;28;20388;-45
2022/04/17 09:43:39;;;;;;;7.72;4.53;;;17.10;90.50;;;;;;4978658;28;20049;-43
2022/04/17 09:46:08;;;;;;;9.25;4.82;;;17.80;90.40;;;;;;4994599;28;20041;-42
2022/04/17 09:48:39;;;;;;;6.22;3.92;;;16.70;90.90;;;;;;4996065;28;20052;-45
2022/04/17 09:51:24;;;;;;;8.27;4.15;;;17.40;90.60;;;;;;4995557;28;20498;-47
2022/04/17 09:54:00;;;;;;;8.98;4.82;;;16.70;91.60;;;;;;4994048;28;20038;-45
2022/04/17 09:56:39;;;;;;;7.68;4.47;;;16.70;90.20;;;;;;4996018;28;20054;-45
2022/04/17 09:59:19;;;;;;;6.80;3.97;;;16.80;91.40;;;;;;4995070;28;20049;-46
2022/04/17 10:01:50;;;;;;;6.63;4.30;;;17.00;90.60;;;;;;4994720;28;20030;-47
2022/04/17 10:04:19;;;;;;;6.88;4.03;;;16.90;91.10;;;;;;4993729;28;20045;-43
2022/04/17 10:06:47;;;;;;;6.97;4.68;;;17.60;90.90;;;;;;4994828;28;20049;-46
2022/04/17 10:09:14;;;;;;;6.10;4.03;;;19.20;91.00;;;;;;4993683;28;20057;-43
2022/04/17 10:11:40;;;;;;;6.20;4.10;;;17.20;90.20;;;;;;4995094;28;20495;-42
2022/04/17 10:14:06;;;;;;;7.55;4.50;;;17.10;90.30;;;;;;4995877;28;20052;-46
2022/04/17 10:16:35;;;;;;;7.80;4.75;;;18.20;91.40;;;;;;4994557;28;20053;-45
2022/04/17 10:19:17;;;;;;;5.32;3.42;;;18.20;90.80;;;;;;4994043;28;20499;-45
2022/04/17 10:21:49;;;;;;;7.57;4.30;;;17.10;87.00;;;;;;4994802;28;20084;-47
2022/04/17 10:24:15;;;;;;;;;;;17.00;88.40;;;;;;4995551;28;20360;-45
2022/04/17 10:26:47;;;;;;;6.47;4.28;;;17.00;91.50;;;;;;4996263;28;19925;-47
2022/04/17 10:29:28;;;;;;;8.02;4.60;;;17.30;92.20;;;;;;4995530;28;20046;-44
2022/04/17 10:32:12;;;;;;;11.15;5.15;;;17.50;89.90;;;;;;4995582;28;20498;-42
2022/04/17 10:34:50;;;;;;;6.40;3.78;;;17.40;88.10;;;;;;4995825;28;20042;-42
2022/04/17 10:37:43;;;;;;;5.43;3.42;;;18.50;89.00;;;;;;4994519;28;20084;-44
2022/04/17 10:40:13;;;;;;;6.72;3.50;;;17.60;87.40;;;;;;4993266;28;20663;-46
2022/04/17 10:42:55;;;;;;;6.28;3.72;;;17.70;90.10;;;;;;4994112;28;20952;-47
2022/04/17 10:45:22;;;;;;;6.18;3.58;;;17.50;87.80;;;;;;4994526;28;20038;-46
2022/04/17 10:48:12;;;;;;;5.78;3.25;;;19.60;90.80;;;;;;4993607;28;20420;-46
2022/04/17 10:50:55;;;;;;;5.85;3.20;;;18.00;91.10;;;;;;4994182;28;20026;-45
2022/04/17 10:53:29;;;;;;;6.30;3.58;;;18.20;89.30;;;;;;4994076;28;20057;-48
2022/04/17 10:56:09;;;;;;;6.75;3.25;;;18.30;91.00;;;;;;4993986;28;20446;-44
2022/04/17 10:58:44;;;;;;;7.55;3.95;;;18.30;87.20;;;;;;4993991;28;21175;-47
2022/04/17 11:01:13;;;;;;;7.93;3.70;;;18.20;83.50;;;;;;4993990;28;20045;-45
2022/04/17 11:03:49;;;;;;;8.25;3.70;;;18.10;85.30;;;;;;4992930;28;20119;-47
2022/04/17 11:06:33;;;;;;;5.20;2.85;;;19.10;86.40;;;;;;4994374;28;20119;-47
2022/04/17 11:09:10;;;;;;;5.03;2.80;;;17.90;85.70;;;;;;4991791;28;20048;-45
2022/04/17 11:11:46;;;;;;;6.20;3.38;;;19.10;84.50;;;;;;4994773;28;20852;-47
2022/04/17 11:14:23;;;;;;;3.92;2.72;;;18.00;85.80;;;;;;4994020;28;20077;-47
2022/04/17 11:17:04;;;;;;;6.50;2.65;;;20.20;84.40;;;;;;4992726;28;20042;-47
2022/04/17 11:19:31;;;;;;;6.70;3.35;;;17.90;85.90;;;;;;4993662;28;20683;-46
2022/04/17 11:22:03;;;;;;;6.85;3.13;;;18.00;83.90;;;;;;4991576;28;20521;-48
2022/04/17 11:24:55;;;;;;;7.43;3.20;;;18.20;83.70;;;;;;4992487;28;20046;-45
2022/04/17 11:27:48;;;;;;;4.88;2.83;;;18.20;81.80;;;;;;4992373;28;20129;-57
2022/04/17 11:30:14;;;;;;;5.25;3.22;;;18.20;82.90;;;;;;4994359;28;20049;-56
2022/04/17 11:32:40;;;;;;;5.20;3.17;;;18.20;84.60;;;;;;4992744;28;20038;-55
2022/04/17 11:35:08;;;;;;;6.80;3.97;;;20.30;85.40;;;;;;4993650;28;20094;-56
2022/04/17 11:37:34;;;;;;;5.47;3.20;;;20.20;86.30;;;;;;4993761;28;20246;-59
2022/04/17 11:40:14;;;;;;;4.97;2.83;;;18.20;84.60;;;;;;4976467;28;20050;-57
2022/04/17 11:43:06;;;;;;;7.88;3.10;;;18.30;87.40;;;;;;4992541;28;20042;-57
2022/04/17 11:45:32;;;;;;;6.65;3.10;;;18.20;82.50;;;;;;4992320;28;20049;-55
2022/04/17 11:48:04;;;;;;;5.65;3.35;;;19.00;84.20;;;;;;4990596;28;20049;-55
2022/04/17 11:50:30;;;;;;;5.82;3.17;;;18.20;81.30;;;;;;4991940;28;20041;-56
2022/04/17 11:53:05;;;;;;;6.97;2.67;;;18.10;82.80;;;;;;4992068;28;20049;-55
2022/04/17 11:55:36;;;;;;;4.22;2.42;;;18.30;85.40;;;;;;4989791;28;20048;-57
2022/04/17 11:58:03;;;;;;;5.47;2.72;;;18.30;81.50;;;;;;4992097;28;20614;-57
2022/04/17 12:00:30;;;;;;;6.07;3.15;;;18.30;81.60;;;;;;4994204;28;20041;-56
2022/04/17 12:03:01;;;;;;;8.23;3.90;;;18.20;80.60;;;;;;4993917;28;20049;-56
2022/04/17 12:05:28;;;;;;;6.73;3.43;;;19.60;82.50;;;;;;4992714;28;20042;-57
2022/04/17 12:07:58;;;;;;;7.13;3.60;;;18.00;80.60;;;;;;4992167;28;20034;-56
2022/04/17 12:10:23;;;;;;;6.10;3.00;;;18.20;83.90;;;;;;4992811;28;20038;-55
2022/04/17 12:12:49;;;;;;;5.38;2.90;;;19.30;84.60;;;;;;4993489;28;20058;-57
2022/04/17 12:15:17;;;;;;;5.03;2.90;;;18.40;81.30;;;;;;4992886;28;20080;-57
2022/04/17 12:17:43;;;;;;;6.55;3.50;;;17.90;82.70;;;;;;4992562;28;20350;-55
2022/04/17 12:20:15;;;;;;;5.80;3.60;;;17.80;81.50;;;;;;4991542;28;21294;-56
2022/04/17 12:22:42;;;;;;;8.75;3.25;;;18.00;82.10;;;;;;4991771;28;20132;-56
2022/04/17 12:25:20;;;;;;;6.50;3.30;;;18.50;84.40;;;;;;4992251;28;20558;-57
2022/04/17 12:27:48;;;;;;;6.53;3.33;;;19.00;81.60;;;;;;4991143;28;20042;-52
2022/04/17 12:30:27;;;;;;;6.25;3.28;;;18.00;82.30;;;;;;4992257;28;20498;-56
2022/04/17 12:32:59;;;;;;;6.93;3.45;;;18.10;84.60;;;;;;4992341;28;20376;-57
2022/04/17 12:35:30;;;;;;;6.47;3.50;;;19.10;82.80;;;;;;4992035;28;20410;-55
2022/04/17 12:38:03;;;;;;;7.72;3.30;;;17.80;82.00;;;;;;4992704;28;20132;-54
2022/04/17 12:40:29;;;;;;;6.45;3.55;;;18.70;82.40;;;;;;4992354;28;20057;-55
2022/04/17 12:43:16;;;;;;;6.03;3.35;;;18.00;82.20;;;;;;4992463;28;20042;-55
2022/04/17 12:46:01;;;;;;;6.15;3.40;;;17.90;86.50;;;;;;4992521;28;20145;-55
2022/04/17 12:48:30;;;;;;;5.13;2.80;;;17.90;84.50;;;;;;4992748;28;20111;-56
2022/04/17 12:50:57;;;;;;;4.90;2.60;;;20.40;83.60;;;;;;4991247;28;20088;-56
2022/04/17 12:53:23;;;;;;;5.72;2.75;;;18.20;82.70;;;;;;4991021;28;20530;-55
2022/04/17 12:55:53;;;;;;;5.03;2.90;;;20.50;85.00;;;;;;4990272;28;20129;-56
2022/04/17 12:58:20;;;;;;;7.57;2.97;;;18.60;80.40;;;;;;4991294;28;20518;-56
2022/04/17 13:00:55;;;;;;;4.97;2.67;;;18.90;80.60;;;;;;4993884;28;20046;-56
2022/04/17 13:03:23;;;;;;;5.43;3.05;;;18.20;82.50;;;;;;4992582;28;20410;-55
2022/04/17 13:05:59;;;;;;;7.20;3.45;;;18.30;81.30;;;;;;4991913;28;20080;-57
2022/04/17 13:08:24;;;;;;;8.23;3.03;;;19.10;83.60;;;;;;4993167;28;20141;-56
2022/04/17 13:10:50;;;;;;;5.85;2.75;;;18.10;80.00;;;;;;4993796;28;20402;-57
2022/04/17 13:13:15;;;;;;;6.97;3.47;;;18.00;81.20;;;;;;4995113;28;20625;-56
2022/04/17 13:15:42;;;;;;;7.03;3.22;;;18.30;82.20;;;;;;4995958;28;20502;-56
2022/04/17 13:18:08;;;;;;;7.80;3.47;;;17.80;82.80;;;;;;4995422;28;20572;-56
2022/04/17 13:20:35;;;;;;;6.18;3.20;;;19.80;83.60;;;;;;4994561;28;20065;-57
2022/04/17 13:23:07;;;;;;;5.53;3.20;;;17.80;82.40;;;;;;4995415;28;20042;-55
2022/04/17 13:25:33;;;;;;;;;;;17.50;80.50;;;;;;4995900;28;20111;-57
2022/04/17 13:28:00;;;;;;;5.25;2.97;;;17.30;85.80;;;;;;4995712;28;19936;-55
2022/04/17 13:30:26;;;;;;;6.00;3.45;;;17.40;83.80;;;;;;4994857;28;20045;-56
2022/04/17 13:32:52;;;;;;;6.22;4.03;;;18.30;82.40;;;;;;4994318;28;20198;-56
2022/04/17 13:35:19;;;;;;;7.72;4.20;;;17.50;84.10;;;;;;4995583;28;20758;-55